Kane, IL (62054)

4:44 AM CDT on July 31, 2015 (GMT -0500)
Southland Estates | | Change Station
CLOSE
Current Station
Personal Weather Station
Location: Jerseyville, IL
Elevation: 669 ft
Nearby Weather Stations
Active Advisory: Flood Warning

Elev 669 ft 39.07 °N, 90.29 °W | Updated 14 seconds ago

Clear
Clear
68.9 °F
Feels Like 68.9 °F
N
0.2
Wind Variable Wind from West
Gusts 2.5 mph

Today
High -- | Low -- °F
--% Chance of Precip.
Yesterday
High -- | Low -- °F
Precip. -- in
6:00 AM 8:14 PM
Full, 100% visible
Pressure 30.09 in
Visibility 10.0 miles
Clouds Clear
Dew Point 64 °F
Humidity 83%
Rainfall 0.00 in
Snow Depth Not available.
UV 0.0 out of 12
Pollen 6.50 out of 12
Air Quality Not available.
Flu Activity Not available.
METAR KSET 310854Z AUTO 30003KT 10SM CLR 21/19 A3010 RMK AO2 SLP188 T02060189 58003

More Conditions Fewer Conditions

Pressure 30.09 in
Visibility 10.0 miles
Clouds Clear
Dew Point 64 °F
Humidity 83%
Rainfall 0.00 in
Snow Depth Not available.
UV 0.0 out of 12
Pollen 6.50 out of 12
Air Quality Not available.
Flu Activity Not available.
METAR KSET 310854Z AUTO 30003KT 10SM CLR 21/19 A3010 RMK AO2 SLP188 T02060189 58003

More Conditions Fewer Conditions

10-Day Weather Forecast

×

Almanac

Astronomy

Jul. 31, 2015 Rise Set
Actual Time
Civil Twilight
Nautical Twilight
Astronomical Twilight
Moon
Length of Visible Light
Length of Day
Tomorrow will be .
, % of the Moon is Illuminated

Today's Extremes

State Highs State Lows

Community

WunderPhotos

Upload Photos

1,842,639 photos uploaded!

WunderBlogs® & News

Nearby

Air Quality

  Air Quality AQ Index Pollutant
Not available.

Snow Depth

Station Depth Elevation

Earthquake Activity

City Distance Mag. Time & Date
Minimum magnitude displayed is 2.5.

Coastal Water Temperatures

Place Temperature

Stations

Nearby Weather Stations

Station Location Temp. Windchill Dew Point Humidity Wind Precip. Elev Updated Type
                   
Flood Warning
Statement as of 8:43 PM CDT on July 30, 2015

The Flood Warning continues for
the Illinois River at Hardin.
* At 8 PM Thursday the stage was 28.4 feet.
* Flood stage is 25.0 feet.
* Minor flooding is occurring.
* The river will fall to near 27.7 feet by Saturday morning.

                   Fld latest 7 a.M. Forecast
location stg obs stg 07/31 08/01 08/02 08/03 08/04

Illinois River
Hardin 25.0 28.37 28.1 27.7 27.2 26.7 26.2




Lat... Lon 3952 9064 3952 9052 3898 9048 3891 9054
      3903 9062